createdAt,value
2018-11-14T00:02:20.056Z,1.50
2018-11-14T00:07:24.324Z,1.20
2018-11-14T00:12:31.495Z,1.40
2018-11-14T00:17:35.871Z,1.57
2018-11-14T00:22:41.322Z,1.37
2018-11-14T00:27:45.717Z,1.40
2018-11-14T00:32:49.929Z,1.40
2018-11-14T00:37:54.150Z,1.67
2018-11-14T00:42:58.560Z,1.30
2018-11-14T00:48:03.013Z,1.23
2018-11-14T00:53:07.241Z,1.30
2018-11-14T00:58:11.494Z,1.53
2018-11-14T01:03:15.741Z,1.10
2018-11-14T01:08:20.012Z,1.27
2018-11-14T01:13:24.230Z,1.23
2018-11-14T01:18:28.697Z,1.50
2018-11-14T01:23:33.197Z,1.37
2018-11-14T01:28:37.451Z,1.37
2018-11-14T01:33:41.660Z,1.60
2018-11-14T01:38:45.913Z,1.50
2018-11-14T01:43:50.205Z,1.27
2018-11-14T01:48:54.532Z,1.40
2018-11-14T01:53:58.846Z,1.23
2018-11-14T01:59:03.118Z,1.50
2018-11-14T02:04:07.636Z,1.50
2018-11-14T02:09:11.881Z,1.23
2018-11-14T02:14:16.255Z,1.23
2018-11-14T02:19:20.478Z,1.50
2018-11-14T02:24:24.715Z,1.30
2018-11-14T02:29:29.042Z,1.30
2018-11-14T02:34:33.332Z,1.30
2018-11-14T02:39:37.644Z,1.27
2018-11-14T02:44:42.038Z,1.00
2018-11-14T02:49:46.252Z,1.50
2018-11-14T02:54:51.138Z,1.60
2018-11-14T02:59:55.637Z,1.33
2018-11-14T03:04:59.897Z,1.60
2018-11-14T03:10:04.409Z,1.37
2018-11-14T03:15:10.793Z,1.20
2018-11-14T03:20:18.028Z,1.43
2018-11-14T03:25:22.318Z,1.30
2018-11-14T03:30:26.542Z,1.13
2018-11-14T03:35:36.202Z,1.13
2018-11-14T03:40:40.471Z,1.20
2018-11-14T03:45:44.751Z,1.17
2018-11-14T03:50:49.175Z,1.27
2018-11-14T03:55:53.459Z,1.10
2018-11-14T04:00:57.930Z,1.13
2018-11-14T04:06:02.200Z,1.10
2018-11-14T04:11:06.716Z,1.17
2018-11-14T04:16:11.283Z,1.20
2018-11-14T04:21:15.499Z,1.20
2018-11-14T04:26:19.775Z,1.23
2018-11-14T04:31:24.054Z,1.03
2018-11-14T04:36:28.340Z,1.17
2018-11-14T04:41:32.735Z,1.30
2018-11-14T04:46:37.027Z,2.07
2018-11-14T04:51:41.370Z,1.70
2018-11-14T04:56:45.941Z,1.83
2018-11-14T05:01:50.543Z,1.73
2018-11-14T05:06:54.742Z,2.10
2018-11-14T05:11:59.004Z,2.57
2018-11-14T05:17:03.283Z,2.70
2018-11-14T05:22:07.668Z,2.50
2018-11-14T05:27:11.880Z,3.03
2018-11-14T05:32:16.112Z,3.97
2018-11-14T05:37:20.563Z,3.10
2018-11-14T05:42:24.924Z,2.90
2018-11-14T05:47:29.364Z,2.30
2018-11-14T05:52:33.660Z,1.83
2018-11-14T05:57:38.007Z,1.33
2018-11-14T06:02:42.269Z,1.33
2018-11-14T06:07:46.491Z,0.97
2018-11-14T06:12:50.909Z,1.23
2018-11-14T06:17:56.242Z,1.10
2018-11-14T06:23:00.491Z,1.70
2018-11-14T06:28:06.229Z,1.43
2018-11-14T06:33:11.335Z,1.60
2018-11-14T06:38:15.508Z,1.00
2018-11-14T06:43:20.253Z,1.07
2018-11-14T06:48:24.726Z,1.40
2018-11-14T06:53:28.963Z,1.40
2018-11-14T06:58:33.444Z,1.17
2018-11-14T07:03:37.663Z,1.27
2018-11-14T07:08:41.844Z,1.30
2018-11-14T07:13:46.133Z,1.10
2018-11-14T07:18:50.517Z,1.07
2018-11-14T07:23:54.791Z,1.40
2018-11-14T07:28:59.027Z,1.10
2018-11-14T07:34:03.368Z,1.30
2018-11-14T07:39:09.532Z,1.30
2018-11-14T07:44:13.710Z,1.63
2018-11-14T07:49:18.299Z,1.43
2018-11-14T07:54:22.475Z,1.17
2018-11-14T07:59:26.788Z,1.00
2018-11-14T08:04:34.226Z,1.23
2018-11-14T08:09:38.582Z,1.10
2018-11-14T08:14:43.080Z,1.20
2018-11-14T08:19:47.357Z,1.20
2018-11-14T08:24:51.663Z,0.97
2018-11-14T08:29:56.187Z,1.20
2018-11-14T08:35:00.535Z,1.10
2018-11-14T08:40:06.719Z,1.30
2018-11-14T08:45:12.045Z,1.20
2018-11-14T08:50:16.957Z,1.10
2018-11-14T08:55:21.174Z,1.27
2018-11-14T09:00:26.876Z,1.43
2018-11-14T09:05:31.325Z,1.30
2018-11-14T09:10:35.559Z,1.37
2018-11-14T09:15:39.949Z,1.57
2018-11-14T09:20:44.316Z,1.40
2018-11-14T09:25:48.654Z,1.27
2018-11-14T09:30:52.913Z,1.90
2018-11-14T09:35:57.125Z,1.73
2018-11-14T09:41:01.378Z,2.10
2018-11-14T09:46:05.878Z,1.80
2018-11-14T09:51:10.480Z,1.93
2018-11-14T09:56:14.800Z,2.30
2018-11-14T10:01:19.078Z,2.10
2018-11-14T10:06:23.340Z,1.60
2018-11-14T10:11:27.568Z,2.23
2018-11-14T10:16:31.759Z,2.17
2018-11-14T10:21:36.011Z,2.50
2018-11-14T10:26:40.366Z,2.33
2018-11-14T10:31:44.699Z,1.80
2018-11-14T10:36:49.028Z,1.83
2018-11-14T10:41:53.338Z,1.87
2018-11-14T10:46:57.581Z,2.03
2018-11-14T10:52:01.976Z,1.80
2018-11-14T10:57:06.286Z,1.80
2018-11-14T11:03:13.361Z,1.90
2018-11-14T11:08:23.787Z,1.67
2018-11-14T11:13:33.477Z,1.63
2018-11-14T11:18:37.759Z,1.53
2018-11-14T11:23:42.037Z,1.57
2018-11-14T11:28:46.299Z,1.20
2018-11-14T11:33:50.486Z,1.60
2018-11-14T11:38:54.815Z,1.50
2018-11-14T11:43:59.069Z,1.50
2018-11-14T11:49:03.329Z,1.73
2018-11-14T11:54:08.037Z,1.90
2018-11-14T11:59:12.278Z,1.30
2018-11-14T12:04:16.482Z,1.63
2018-11-14T12:09:20.783Z,1.40
2018-11-14T12:14:25.013Z,1.27
2018-11-14T12:19:29.454Z,1.70
2018-11-14T12:24:33.731Z,1.70
2018-11-14T12:29:38.200Z,2.00
2018-11-14T12:34:42.611Z,1.70
2018-11-14T12:39:46.933Z,1.50
2018-11-14T12:44:51.235Z,1.70
2018-11-14T12:49:55.590Z,1.73
2018-11-14T12:54:59.838Z,1.57
2018-11-14T13:00:04.393Z,1.40
2018-11-14T13:05:09.911Z,1.70
2018-11-14T13:10:15.464Z,1.93
2018-11-14T13:15:20.328Z,1.60
2018-11-14T13:20:25.234Z,1.70
2018-11-14T13:25:29.428Z,2.07
2018-11-14T13:30:33.836Z,2.00
2018-11-14T13:35:38.120Z,2.40
2018-11-14T13:40:42.522Z,2.70
2018-11-14T13:45:46.792Z,1.87
2018-11-14T13:50:51.368Z,2.37
2018-11-14T13:55:55.463Z,2.00
2018-11-14T14:01:06.555Z,2.30
2018-11-14T14:06:10.805Z,2.27
2018-11-14T14:11:15.005Z,2.40
2018-11-14T14:16:19.291Z,2.10
2018-11-14T14:21:23.579Z,1.63
2018-11-14T14:26:27.988Z,2.00
2018-11-14T14:31:32.254Z,1.77
2018-11-14T14:36:36.682Z,1.87
2018-11-14T14:41:41.039Z,1.40
2018-11-14T14:46:45.224Z,2.17
2018-11-14T14:51:49.454Z,1.70
2018-11-14T14:56:53.753Z,1.67
2018-11-14T15:01:58.273Z,1.70
2018-11-14T15:07:02.610Z,1.70
2018-11-14T15:12:07.834Z,1.80
2018-11-14T15:17:12.033Z,1.70
2018-11-14T15:22:16.313Z,2.10
2018-11-14T15:27:20.910Z,1.97
2018-11-14T15:32:25.544Z,1.70
2018-11-14T15:37:29.809Z,1.90
2018-11-14T15:42:34.185Z,1.80
2018-11-14T15:47:38.821Z,1.70
2018-11-14T15:52:44.205Z,1.87
2018-11-14T15:57:48.788Z,1.90
2018-11-14T16:02:53.012Z,1.60
2018-11-14T16:07:58.407Z,1.87
2018-11-14T16:13:02.724Z,1.80
2018-11-14T16:18:06.952Z,1.83
2018-11-14T16:23:11.220Z,1.60
2018-11-14T16:28:15.475Z,1.70
2018-11-14T16:33:19.804Z,1.40
2018-11-14T16:38:24.149Z,1.70
2018-11-14T16:43:28.452Z,1.70
2018-11-14T16:48:32.732Z,1.47
2018-11-14T16:53:38.243Z,1.73
2018-11-14T16:58:43.039Z,1.80
2018-11-14T17:03:47.884Z,1.83
2018-11-14T17:08:52.969Z,1.90
2018-11-14T17:13:58.694Z,1.73
2018-11-14T17:19:05.656Z,1.90
2018-11-14T17:24:10.230Z,1.90
2018-11-14T17:29:15.092Z,2.10
2018-11-14T17:34:20.969Z,1.60
2018-11-14T17:39:25.384Z,1.77
2018-11-14T17:44:29.785Z,2.20
2018-11-14T17:49:34.367Z,1.90
2018-11-14T17:54:40.028Z,2.13
2018-11-14T17:59:45.951Z,1.73
2018-11-14T18:04:50.788Z,2.10
2018-11-14T18:09:56.197Z,2.07
2018-11-14T18:15:00.657Z,1.77
2018-11-14T18:20:06.384Z,1.87
2018-11-14T18:25:11.898Z,2.43
2018-11-14T18:30:19.293Z,2.20
2018-11-14T18:35:24.515Z,2.27
2018-11-14T18:40:30.458Z,2.90
2018-11-14T18:45:36.214Z,3.70
2018-11-14T18:50:40.840Z,2.30
2018-11-14T18:55:45.283Z,2.93
2018-11-14T19:00:53.310Z,2.77
2018-11-14T19:05:57.748Z,3.13
2018-11-14T19:11:02.438Z,2.47
2018-11-14T19:16:06.814Z,2.67
2018-11-14T19:21:11.332Z,2.80
2018-11-14T19:26:16.593Z,2.50
2018-11-14T19:31:20.960Z,2.60
2018-11-14T19:36:26.407Z,2.30
2018-11-14T19:41:31.227Z,2.53
2018-11-14T19:46:36.814Z,2.53
2018-11-14T19:51:46.561Z,2.43
2018-11-14T19:56:51.380Z,2.63
2018-11-14T20:01:57.984Z,3.27
2018-11-14T20:07:03.383Z,2.70
2018-11-14T20:12:09.028Z,2.97
2018-11-14T20:17:14.255Z,2.40
2018-11-14T20:22:24.570Z,2.70
2018-11-14T20:27:30.117Z,2.40
2018-11-14T20:32:35.618Z,2.47
2018-11-14T20:37:41.871Z,2.00
2018-11-14T20:42:47.490Z,1.90
2018-11-14T20:47:51.836Z,1.73
2018-11-14T20:52:58.555Z,2.00
2018-11-14T20:58:03.058Z,1.97
2018-11-14T21:03:08.701Z,2.37
2018-11-14T21:08:12.911Z,2.50
2018-11-14T21:13:17.235Z,2.20
2018-11-14T21:18:21.606Z,1.97
2018-11-14T21:23:26.361Z,2.07
2018-11-14T21:28:30.644Z,2.47
2018-11-14T21:33:34.973Z,2.57
2018-11-14T21:38:39.246Z,2.40
2018-11-14T21:43:43.488Z,2.43
2018-11-14T21:48:47.745Z,2.23
2018-11-14T21:53:52.014Z,2.37
2018-11-14T21:58:57.271Z,2.60
2018-11-14T22:04:01.615Z,2.57
2018-11-14T22:09:08.741Z,2.60
2018-11-14T22:14:13.089Z,2.50
2018-11-14T22:19:17.355Z,2.83
2018-11-14T22:24:24.650Z,2.30
2018-11-14T22:29:29.022Z,2.43
2018-11-14T22:34:33.250Z,2.63
2018-11-14T22:39:37.443Z,2.67
2018-11-14T22:44:41.799Z,4.70
2018-11-14T22:49:46.002Z,3.13
2018-11-14T22:54:50.272Z,2.60
2018-11-14T22:59:54.507Z,2.90
2018-11-14T23:04:59.233Z,3.10
2018-11-14T23:10:03.588Z,3.23
2018-11-14T23:15:08.687Z,3.67
2018-11-14T23:20:13.968Z,4.23
2018-11-14T23:25:18.990Z,3.80
2018-11-14T23:30:24.357Z,3.37
2018-11-14T23:35:30.645Z,4.03
2018-11-14T23:40:34.913Z,4.27
2018-11-14T23:45:39.200Z,4.17
2018-11-14T23:50:43.406Z,4.50
2018-11-14T23:55:47.687Z,4.47
